This is the latest recevied weather packets stored in our database for station/object SP9MUF-14. If no packets are shown the sender has not sent any weather packets the latest 10 day(s).
| Time | Temp. | Humidity | Pressure | Rain* | Wind** | Luminosity | Snow |
|---|---|---|---|---|---|---|---|
| 1788015687 | 25° C | 47% | 1014.6 hPa | 0 mm | - | 162 W/m² | - |
| 1788015385 | 25.56° C | 49% | 1014.4 hPa | 0 mm | - | 176 W/m² | - |
| 1788015083 | 25° C | 48% | 1014.7 hPa | 0 mm | - | 186 W/m² | - |
| 1788014781 | 23.89° C | 51% | 1014.8 hPa | 0 mm | - | 200 W/m² | - |
| 1788014479 | 25° C | 49% | 1014.7 hPa | 0 mm | - | 216 W/m² | - |
| 1788014177 | 25° C | 51% | 1014.8 hPa | 0 mm | - | 228 W/m² | - |
| 1788013875 | 25° C | 47% | 1014.7 hPa | 0 mm | - | 239 W/m² | - |
| 1788013271 | 25° C | 49% | 1014.7 hPa | 0 mm | - | 267 W/m² | - |
| 1788012968 | 23.89° C | 50% | 1014.7 hPa | 0 mm | - | 280 W/m² | - |
| 1788012666 | 25° C | 48% | 1014.6 hPa | 0 mm | - | 297 W/m² | - |
| 1788012364 | 25° C | 49% | 1014.7 hPa | 0 mm | - | 307 W/m² | - |
| 1788012062 | 25° C | 51% | 1014.7 hPa | 0 mm | - | 325 W/m² | - |
| 1788011760 | 23.89° C | 50% | 1014.8 hPa | 0 mm | - | 348 W/m² | - |
| 1788011458 | 23.89° C | 50% | 1014.7 hPa | 0 mm | - | 354 W/m² | - |
| 1788011156 | 23.89° C | 52% | 1014.7 hPa | 0 mm | - | 362 W/m² | - |
| 1788010854 | 23.89° C | 53% | 1014.7 hPa | 0 mm | - | 372 W/m² | - |
| 1788010552 | 25° C | 50% | 1014.8 hPa | 0 mm | - | 383 W/m² | - |
| 1788009996 | 25° C | 52% | 1012.2 hPa | 0 mm | - | 411 W/m² | - |
| 1788009948 | 25° C | 52% | 1012.2 hPa | 0 mm | - | 411 W/m² | - |
| 1788009343 | 23.89° C | 54% | 1015.1 hPa | 0 mm | - | 438 W/m² | - |
| 1788009041 | 23.89° C | 54% | 1015.1 hPa | 0 mm | - | 450 W/m² | - |
| 1788008739 | 22.78° C | 56% | 1015.2 hPa | 0 mm | - | 488 W/m² | - |
| 1788008134 | 22.78° C | 57% | 1015.3 hPa | 0 mm | - | 506 W/m² | - |
| 1788007833 | 25° C | 53% | 1015.1 hPa | 0 mm | - | 494 W/m² | - |
| 1788007530 | 23.89° C | 53% | 1015.2 hPa | 0 mm | - | 517 W/m² | - |
* Rain latest hour (hover to see other rain measurements)
** Current wind speed in m/s (hover to see current wind gust speed)